createdAt,value
2019-06-08T00:00:26.800Z,63.61
2019-06-08T00:02:53.783Z,63.90
2019-06-08T00:05:21.127Z,64.45
2019-06-08T00:07:48.233Z,64.13
2019-06-08T00:10:20.551Z,63.03
2019-06-08T00:12:46.160Z,64.30
2019-06-08T00:15:14.039Z,63.86
2019-06-08T00:17:41.297Z,63.83
2019-06-08T00:20:10.062Z,63.78
2019-06-08T00:22:43.850Z,63.78
2019-06-08T00:25:11.465Z,64.02
2019-06-08T00:27:38.505Z,63.98
2019-06-08T00:30:06.610Z,63.56
2019-06-08T00:32:33.639Z,63.29
2019-06-08T00:35:00.616Z,63.10
2019-06-08T00:37:27.649Z,63.50
2019-06-08T00:39:54.622Z,63.21
2019-06-08T00:42:21.605Z,64.28
2019-06-08T00:44:49.694Z,63.75
2019-06-08T00:47:20.946Z,63.27
2019-06-08T00:49:50.225Z,63.29
2019-06-08T00:52:17.232Z,63.44
2019-06-08T00:54:44.681Z,63.58
2019-06-08T00:57:19.698Z,63.37
2019-06-08T00:59:46.980Z,63.38
2019-06-08T01:02:13.926Z,63.54
2019-06-08T01:04:40.915Z,63.22
2019-06-08T01:07:07.937Z,63.47
2019-06-08T01:09:34.939Z,63.84
2019-06-08T01:12:01.877Z,63.44
2019-06-08T01:14:29.143Z,63.23
2019-06-08T01:17:02.175Z,63.16
2019-06-08T01:19:29.639Z,63.71
2019-06-08T01:21:56.797Z,63.70
2019-06-08T01:24:23.807Z,63.85
2019-06-08T01:26:50.798Z,63.92
2019-06-08T01:29:17.822Z,63.93
2019-06-08T01:31:44.798Z,63.64
2019-06-08T01:34:15.474Z,63.83
2019-06-08T01:37:06.172Z,63.55
2019-06-08T01:39:35.531Z,63.62
2019-06-08T01:42:02.510Z,63.74
2019-06-08T01:44:30.051Z,63.78
2019-06-08T01:46:57.187Z,64.05
2019-06-08T01:49:26.251Z,63.99
2019-06-08T01:51:53.283Z,63.93
2019-06-08T01:54:20.286Z,63.75
2019-06-08T01:56:47.276Z,64.15
2019-06-08T01:59:14.261Z,64.37
2019-06-08T02:01:43.575Z,64.23
2019-06-08T02:04:17.342Z,64.35
2019-06-08T02:06:44.356Z,64.16
2019-06-08T02:09:11.357Z,64.24
2019-06-08T02:11:38.385Z,64.33
2019-06-08T02:14:05.476Z,64.29
2019-06-08T02:16:35.596Z,64.34
2019-06-08T02:19:02.662Z,64.34
2019-06-08T02:21:30.854Z,64.21
2019-06-08T02:23:58.122Z,64.57
2019-06-08T02:26:27.583Z,64.75
2019-06-08T02:28:54.017Z,64.57
2019-06-08T02:31:21.054Z,64.45
2019-06-08T02:33:55.874Z,64.58
2019-06-08T02:36:22.890Z,64.34
2019-06-08T02:38:49.882Z,64.27
2019-06-08T02:41:16.893Z,64.40
2019-06-08T02:43:44.069Z,64.47
2019-06-08T02:46:11.086Z,64.36
2019-06-08T02:49:00.155Z,64.13
2019-06-08T02:51:07.006Z,64.67
2019-06-08T02:53:35.984Z,64.51
2019-06-08T02:56:03.859Z,64.48
2019-06-08T02:58:33.540Z,64.05
2019-06-08T03:01:01.929Z,63.35
2019-06-08T03:03:35.766Z,63.82
2019-06-08T03:06:03.559Z,63.64
2019-06-08T03:08:36.284Z,63.92
2019-06-08T03:11:04.622Z,64.37
2019-06-08T03:13:33.952Z,64.06
2019-06-08T03:16:02.639Z,63.98
2019-06-08T03:18:31.464Z,63.89
2019-06-08T03:20:58.492Z,63.98
2019-06-08T03:23:25.459Z,64.00
2019-06-08T03:25:53.461Z,64.26
2019-06-08T03:28:20.764Z,64.13
2019-06-08T03:30:54.303Z,64.70
2019-06-08T03:33:16.675Z,63.85
2019-06-08T03:35:55.816Z,63.94
2019-06-08T03:38:15.351Z,63.92
2019-06-08T03:40:43.485Z,63.63
2019-06-08T03:43:11.216Z,63.97
2019-06-08T03:45:38.327Z,63.71
2019-06-08T03:48:05.387Z,63.42
2019-06-08T03:50:32.369Z,63.27
2019-06-08T03:52:59.490Z,63.07
2019-06-08T03:55:26.503Z,62.93
2019-06-08T03:57:53.544Z,62.80
2019-06-08T04:00:20.561Z,62.69
2019-06-08T04:02:47.566Z,62.85
2019-06-08T04:05:14.647Z,63.00
2019-06-08T04:07:42.205Z,62.74
2019-06-08T04:10:10.710Z,62.78
2019-06-08T04:12:37.861Z,62.84
2019-06-08T04:15:09.893Z,62.58
2019-06-08T04:17:42.206Z,62.13
2019-06-08T04:20:16.861Z,61.83
2019-06-08T04:22:46.307Z,61.61
2019-06-08T04:25:14.021Z,61.64
2019-06-08T04:27:55.633Z,61.86
2019-06-08T04:30:22.718Z,61.88
2019-06-08T04:32:52.498Z,61.09
2019-06-08T04:35:21.385Z,61.58
2019-06-08T04:37:50.657Z,61.09
2019-06-08T04:40:17.834Z,61.19
2019-06-08T04:42:46.709Z,60.99
2019-06-08T04:45:14.151Z,61.03
2019-06-08T04:47:43.216Z,61.25
2019-06-08T04:50:22.653Z,60.83
2019-06-08T04:52:40.809Z,60.85
2019-06-08T04:55:07.980Z,60.91
2019-06-08T04:57:34.987Z,60.88
2019-06-08T05:00:11.188Z,60.55
2019-06-08T05:02:33.946Z,60.96
2019-06-08T05:05:00.970Z,60.99
2019-06-08T05:07:29.761Z,60.57
2019-06-08T05:09:56.781Z,60.69
2019-06-08T05:12:26.074Z,61.15
2019-06-08T05:14:53.133Z,61.14
2019-06-08T05:17:20.139Z,61.04
2019-06-08T05:19:47.461Z,61.36
2019-06-08T05:22:14.518Z,61.64
2019-06-08T05:24:43.507Z,61.70
2019-06-08T05:27:15.422Z,61.69
2019-06-08T05:29:43.252Z,62.28
2019-06-08T05:32:10.288Z,62.82
2019-06-08T05:34:41.377Z,62.96
2019-06-08T05:37:13.507Z,63.01
2019-06-08T05:39:41.470Z,63.43
2019-06-08T05:42:08.561Z,63.74
2019-06-08T05:44:40.079Z,63.98
2019-06-08T05:47:06.849Z,64.14
2019-06-08T05:49:33.824Z,64.22
2019-06-08T05:52:00.944Z,64.11
2019-06-08T05:54:27.906Z,64.31
2019-06-08T05:57:01.741Z,65.18
2019-06-08T05:59:31.875Z,64.83
2019-06-08T06:01:58.857Z,65.08
2019-06-08T06:04:25.962Z,65.29
2019-06-08T06:06:52.963Z,65.23
2019-06-08T06:09:19.940Z,65.34
2019-06-08T06:11:48.905Z,65.30
2019-06-08T06:14:15.931Z,65.37
2019-06-08T06:16:43.141Z,65.34
2019-06-08T06:19:11.487Z,65.19
2019-06-08T06:21:41.532Z,64.94
2019-06-08T06:24:08.540Z,64.17
2019-06-08T06:26:35.559Z,64.22
2019-06-08T06:29:02.832Z,63.86
2019-06-08T06:31:33.566Z,63.42
2019-06-08T06:34:00.579Z,62.95
2019-06-08T06:36:27.557Z,63.20
2019-06-08T06:39:04.259Z,62.57
2019-06-08T06:41:33.848Z,62.30
2019-06-08T06:44:00.858Z,62.06
2019-06-08T06:46:27.862Z,62.54
2019-06-08T06:48:58.228Z,62.82
2019-06-08T06:51:26.811Z,62.19
2019-06-08T06:53:55.125Z,62.90
2019-06-08T06:56:22.215Z,63.67
2019-06-08T06:58:49.425Z,63.92
2019-06-08T07:01:16.444Z,63.65
2019-06-08T07:03:44.528Z,63.55
2019-06-08T07:06:12.746Z,63.05
2019-06-08T07:08:42.010Z,62.54
2019-06-08T07:11:08.732Z,62.52
2019-06-08T07:13:35.728Z,62.50
2019-06-08T07:18:56.587Z,61.95
2019-06-08T07:21:23.587Z,61.42
2019-06-08T07:23:54.398Z,61.52
2019-06-08T07:26:20.710Z,61.61
2019-06-08T07:28:53.598Z,61.44
2019-06-08T07:31:21.150Z,61.04
2019-06-08T07:33:51.860Z,61.56
2019-06-08T07:36:18.173Z,61.53
2019-06-08T07:38:45.226Z,61.41
2019-06-08T07:41:12.204Z,61.78
2019-06-08T07:43:39.280Z,63.23
2019-06-08T07:46:06.268Z,62.62
2019-06-08T07:48:33.240Z,63.23
2019-06-08T07:51:00.489Z,63.03
2019-06-08T07:53:27.515Z,62.58
2019-06-08T07:55:56.232Z,62.41
2019-06-08T07:58:26.141Z,62.18
2019-06-08T08:00:54.635Z,62.01
2019-06-08T08:03:22.859Z,62.04
2019-06-08T08:05:50.369Z,61.60
2019-06-08T08:08:17.560Z,61.59
2019-06-08T08:10:44.542Z,61.95
2019-06-08T08:13:11.562Z,61.23
2019-06-08T08:15:38.623Z,61.65
2019-06-08T08:18:08.456Z,61.44
2019-06-08T08:20:35.691Z,61.41
2019-06-08T08:23:12.487Z,61.95
2019-06-08T08:25:39.525Z,62.11
2019-06-08T08:28:08.220Z,62.30
2019-06-08T08:30:37.687Z,62.55
2019-06-08T08:33:07.783Z,62.72
2019-06-08T08:35:35.052Z,62.82
2019-06-08T08:38:04.396Z,63.01
2019-06-08T08:40:31.013Z,62.82
2019-06-08T08:42:58.760Z,62.97
2019-06-08T08:45:27.616Z,62.90
2019-06-08T08:48:14.417Z,63.08
2019-06-08T08:50:28.409Z,62.87
2019-06-08T08:52:58.492Z,63.16
2019-06-08T08:55:24.319Z,63.25
2019-06-08T08:57:52.160Z,63.42
2019-06-08T09:00:20.407Z,63.40
2019-06-08T09:02:59.135Z,63.01
2019-06-08T09:05:20.198Z,63.16
2019-06-08T09:07:48.296Z,62.93
2019-06-08T09:10:18.123Z,63.79
2019-06-08T09:12:44.851Z,64.87
2019-06-08T09:15:18.986Z,65.28
2019-06-08T09:17:48.157Z,66.09
2019-06-08T09:20:15.871Z,66.49
2019-06-08T09:22:53.730Z,66.92
2019-06-08T09:25:14.540Z,67.27
2019-06-08T09:27:41.478Z,67.33
2019-06-08T09:30:09.625Z,66.85
2019-06-08T09:32:38.265Z,66.59
2019-06-08T09:35:05.895Z,66.90
2019-06-08T09:37:32.912Z,66.33
2019-06-08T09:40:00.882Z,66.87
2019-06-08T09:42:31.801Z,66.49
2019-06-08T09:45:02.150Z,66.29
2019-06-08T09:47:28.085Z,66.09
2019-06-08T09:50:00.401Z,66.38
2019-06-08T09:52:28.161Z,66.08
2019-06-08T09:55:02.030Z,66.11
2019-06-08T09:57:30.320Z,65.51
2019-06-08T10:00:04.353Z,65.41
2019-06-08T10:02:31.129Z,65.29
2019-06-08T10:05:00.509Z,65.02
2019-06-08T10:07:31.071Z,64.70
2019-06-08T10:09:58.766Z,64.40
2019-06-08T10:12:25.011Z,64.33
2019-06-08T10:14:52.001Z,64.39
2019-06-08T10:17:20.977Z,64.52
2019-06-08T10:19:49.179Z,63.76
2019-06-08T10:22:18.259Z,63.79
2019-06-08T10:24:49.089Z,63.45
2019-06-08T10:27:18.534Z,63.57
2019-06-08T10:29:44.585Z,63.94
2019-06-08T10:32:13.957Z,63.60
2019-06-08T10:34:47.970Z,63.48
2019-06-08T10:37:14.798Z,63.07
2019-06-08T10:39:42.157Z,63.43
2019-06-08T10:42:11.954Z,63.40
2019-06-08T10:44:38.960Z,63.00
2019-06-08T10:47:09.987Z,62.92
2019-06-08T10:50:43.086Z,62.67
2019-06-08T10:53:12.382Z,62.63
2019-06-08T10:55:40.892Z,63.03
2019-06-08T10:58:11.379Z,63.10
2019-06-08T11:00:40.231Z,63.21
2019-06-08T11:03:10.042Z,63.06
2019-06-08T11:05:36.169Z,63.22
2019-06-08T11:08:04.475Z,63.18
2019-06-08T11:10:37.274Z,63.62
2019-06-08T11:13:08.246Z,63.86
2019-06-08T11:15:34.648Z,64.62
2019-06-08T11:18:04.744Z,63.96
2019-06-08T11:20:30.646Z,63.92
2019-06-08T11:22:58.383Z,64.45
2019-06-08T11:25:28.047Z,64.92
2019-06-08T11:27:55.225Z,66.45
2019-06-08T11:30:26.671Z,66.12
2019-06-08T11:32:51.444Z,65.94
2019-06-08T11:35:18.531Z,66.21
2019-06-08T11:37:45.501Z,66.31
2019-06-08T11:40:14.683Z,66.11
2019-06-08T11:42:41.767Z,65.56
2019-06-08T11:45:11.138Z,65.47
2019-06-08T11:47:39.151Z,65.52
2019-06-08T11:50:11.671Z,65.79
2019-06-08T11:52:39.488Z,65.78
2019-06-08T11:55:07.482Z,65.80
2019-06-08T11:57:40.910Z,66.14
2019-06-08T12:00:24.038Z,67.40
2019-06-08T12:02:44.964Z,67.88
2019-06-08T12:05:20.713Z,67.62
2019-06-08T12:07:48.110Z,67.90
2019-06-08T12:10:17.635Z,67.61
2019-06-08T12:12:44.165Z,67.39
2019-06-08T12:15:13.257Z,66.98
2019-06-08T12:17:40.390Z,67.99
2019-06-08T12:20:12.830Z,68.04
2019-06-08T12:22:37.677Z,67.92
2019-06-08T12:25:06.190Z,68.02
2019-06-08T12:27:39.409Z,68.12
2019-06-08T12:30:13.319Z,68.21
2019-06-08T12:32:36.365Z,68.36
2019-06-08T12:35:03.553Z,69.15
2019-06-08T12:37:33.706Z,69.09
2019-06-08T12:40:07.593Z,68.79
2019-06-08T12:42:34.387Z,69.43
2019-06-08T12:45:04.533Z,69.01
2019-06-08T12:47:35.156Z,68.76
2019-06-08T12:50:02.199Z,67.68
2019-06-08T12:52:29.796Z,68.17
2019-06-08T12:55:06.090Z,69.16
2019-06-08T12:57:28.390Z,70.34
2019-06-08T12:59:59.788Z,70.20
2019-06-08T13:02:24.427Z,70.41
2019-06-08T13:04:52.060Z,70.61
2019-06-08T13:07:21.892Z,71.04
2019-06-08T13:09:48.923Z,71.28
2019-06-08T13:12:21.248Z,71.93
2019-06-08T13:14:53.322Z,72.76
2019-06-08T13:17:21.312Z,73.32
2019-06-08T13:19:48.395Z,73.09
2019-06-08T13:22:15.424Z,72.93
2019-06-08T13:24:48.561Z,72.72
2019-06-08T13:27:19.199Z,72.73
2019-06-08T13:29:44.495Z,72.47
2019-06-08T13:32:11.745Z,72.62
2019-06-08T13:34:38.893Z,71.63
2019-06-08T13:37:08.215Z,71.59
2019-06-08T13:39:34.748Z,69.72
2019-06-08T13:42:01.733Z,69.14
2019-06-08T13:44:31.780Z,67.58
2019-06-08T13:46:58.757Z,67.05
2019-06-08T13:49:29.689Z,66.04
2019-06-08T13:51:54.618Z,64.65
2019-06-08T13:54:23.605Z,65.05
2019-06-08T13:56:50.647Z,65.31
2019-06-08T13:59:22.285Z,66.36
2019-06-08T14:01:53.435Z,66.55
2019-06-08T14:04:21.075Z,67.03
2019-06-08T14:06:50.599Z,67.93
2019-06-08T14:09:22.102Z,68.35
2019-06-08T14:11:50.962Z,68.62
2019-06-08T14:14:19.936Z,69.09
2019-06-08T14:16:50.722Z,69.83
2019-06-08T14:19:19.980Z,70.16
2019-06-08T14:21:47.626Z,70.82
2019-06-08T14:24:22.863Z,71.16
2019-06-08T14:26:48.510Z,71.29
2019-06-08T14:29:18.423Z,71.00
2019-06-08T14:31:50.732Z,70.28
2019-06-08T14:34:22.978Z,70.18
2019-06-08T14:36:49.500Z,70.42
2019-06-08T14:39:22.027Z,71.18
2019-06-08T14:41:49.716Z,71.78
2019-06-08T14:44:19.600Z,72.52
2019-06-08T14:46:47.978Z,71.59
2019-06-08T14:49:18.280Z,72.06
2019-06-08T14:51:51.621Z,70.28
2019-06-08T14:54:32.778Z,72.95
2019-06-08T14:56:57.786Z,72.83
2019-06-08T14:59:25.512Z,72.43
2019-06-08T15:01:53.867Z,72.26
2019-06-08T15:04:23.795Z,71.91
2019-06-08T15:06:49.757Z,71.79
2019-06-08T15:09:19.431Z,71.86
2019-06-08T15:11:48.461Z,71.30
2019-06-08T15:14:15.415Z,71.19
2019-06-08T15:16:45.527Z,70.80
2019-06-08T15:19:12.507Z,70.72
2019-06-08T15:21:39.693Z,70.85
2019-06-08T15:24:11.317Z,71.04
2019-06-08T15:26:42.771Z,71.18
2019-06-08T15:29:07.538Z,70.79
2019-06-08T15:31:34.615Z,70.47
2019-06-08T15:34:01.577Z,68.64
2019-06-08T15:36:30.729Z,65.44
2019-06-08T15:38:58.591Z,66.21
2019-06-08T15:41:26.527Z,66.05
2019-06-08T15:43:54.419Z,66.79
2019-06-08T15:46:22.071Z,67.08
2019-06-08T15:48:51.119Z,67.50
2019-06-08T15:51:18.077Z,67.44
2019-06-08T15:53:47.701Z,66.99
2019-06-08T15:56:15.122Z,67.06
2019-06-08T15:58:42.079Z,70.48
2019-06-08T16:01:09.063Z,71.72
2019-06-08T16:03:40.474Z,72.85
2019-06-08T16:06:08.796Z,72.66
2019-06-08T16:08:37.875Z,73.95
2019-06-08T16:11:04.717Z,74.21
2019-06-08T16:13:33.048Z,74.04
2019-06-08T16:16:00.010Z,73.34
2019-06-08T16:18:27.406Z,72.85
2019-06-08T16:20:57.511Z,72.73
2019-06-08T16:23:25.354Z,72.75
2019-06-08T16:25:58.064Z,73.31
2019-06-08T16:28:25.692Z,73.01
2019-06-08T16:30:52.748Z,73.22
2019-06-08T16:33:19.756Z,72.79
2019-06-08T16:35:48.517Z,72.62
2019-06-08T16:38:15.522Z,72.34
2019-06-08T16:40:42.486Z,71.67
2019-06-08T16:43:09.486Z,71.13
2019-06-08T16:45:37.735Z,70.72
2019-06-08T16:48:04.750Z,70.77
2019-06-08T16:50:32.922Z,69.42
2019-06-08T16:52:59.864Z,69.18
2019-06-08T16:55:27.697Z,68.41
2019-06-08T16:57:54.793Z,67.82
2019-06-08T17:00:40.776Z,67.78
2019-06-08T17:02:54.550Z,67.34
2019-06-08T17:05:21.530Z,66.19
2019-06-08T17:07:48.498Z,66.37
2019-06-08T17:10:15.519Z,66.49
2019-06-08T17:12:42.528Z,67.37
2019-06-08T17:15:09.784Z,70.93
2019-06-08T17:17:36.760Z,72.33
2019-06-08T17:20:09.308Z,73.71
2019-06-08T17:22:36.745Z,73.52
2019-06-08T17:25:04.169Z,73.76
2019-06-08T17:27:32.655Z,73.49
2019-06-08T17:29:59.966Z,72.83
2019-06-08T17:32:27.047Z,74.26
2019-06-08T17:34:54.057Z,74.11
2019-06-08T17:37:21.034Z,74.19
2019-06-08T17:39:47.980Z,74.68
2019-06-08T17:42:14.990Z,74.41
2019-06-08T17:44:42.536Z,73.85
2019-06-08T17:47:09.743Z,74.10
2019-06-08T17:49:36.855Z,73.97
2019-06-08T17:52:03.821Z,73.58
2019-06-08T17:54:30.842Z,73.11
2019-06-08T17:56:57.857Z,72.74
2019-06-08T17:59:24.834Z,72.65
2019-06-08T18:01:53.853Z,72.73
2019-06-08T18:04:20.833Z,72.29
2019-06-08T18:06:47.816Z,71.92
2019-06-08T18:09:19.752Z,71.74
2019-06-08T18:11:47.976Z,71.13
2019-06-08T18:14:15.098Z,70.87
2019-06-08T18:16:43.751Z,69.77
2019-06-08T18:19:24.225Z,69.48
2019-06-08T18:21:52.221Z,68.96
2019-06-08T18:24:19.210Z,69.73
2019-06-08T18:26:47.483Z,70.52
2019-06-08T18:29:14.597Z,70.47
2019-06-08T18:31:43.007Z,69.95
2019-06-08T18:34:17.606Z,70.12
2019-06-08T18:36:43.553Z,69.98
2019-06-08T18:39:10.498Z,69.89
2019-06-08T18:41:39.335Z,69.15
2019-06-08T18:44:08.428Z,69.03
2019-06-08T18:46:37.563Z,68.90
2019-06-08T18:49:08.180Z,68.84
2019-06-08T18:51:35.182Z,68.79
2019-06-08T18:54:11.271Z,68.68
2019-06-08T18:56:32.161Z,68.47
2019-06-08T18:58:59.152Z,68.58
2019-06-08T19:01:27.555Z,68.21
2019-06-08T19:03:57.726Z,68.10
2019-06-08T19:06:24.396Z,68.07
2019-06-08T19:08:51.612Z,68.17
2019-06-08T19:11:23.928Z,68.06
2019-06-08T19:13:52.176Z,67.96
2019-06-08T19:16:19.623Z,67.78
2019-06-08T19:18:52.112Z,67.75
2019-06-08T19:21:24.434Z,68.44
2019-06-08T19:23:51.410Z,68.75
2019-06-08T19:26:18.397Z,69.37
2019-06-08T19:28:53.586Z,70.09
2019-06-08T19:31:19.620Z,71.10
2019-06-08T19:33:51.376Z,72.86
2019-06-08T19:36:17.168Z,72.89
2019-06-08T19:38:44.666Z,73.27
2019-06-08T19:41:13.310Z,73.00
2019-06-08T19:43:43.606Z,72.65
2019-06-08T19:46:11.600Z,73.12
2019-06-08T19:48:39.697Z,72.68
2019-06-08T19:51:07.643Z,72.58
2019-06-08T19:53:34.732Z,72.47
2019-06-08T19:56:01.696Z,72.42
2019-06-08T19:58:28.693Z,71.76
2019-06-08T20:00:58.598Z,71.85
2019-06-08T20:03:24.651Z,71.57
2019-06-08T20:05:53.830Z,71.62
2019-06-08T20:08:20.800Z,70.81
2019-06-08T20:10:49.227Z,70.94
2019-06-08T20:13:16.715Z,70.76
2019-06-08T20:15:47.619Z,70.65
2019-06-08T20:18:12.575Z,70.64
2019-06-08T20:20:39.605Z,71.02
2019-06-08T20:23:09.492Z,71.00
2019-06-08T20:25:38.039Z,70.97
2019-06-08T20:28:04.401Z,70.61
2019-06-08T20:30:31.394Z,70.29
2019-06-08T20:33:01.421Z,70.13
2019-06-08T20:35:28.394Z,69.75
2019-06-08T20:37:57.772Z,69.40
2019-06-08T20:40:27.915Z,69.03
2019-06-08T20:42:57.557Z,69.01
2019-06-08T20:45:24.066Z,69.03
2019-06-08T20:47:52.691Z,69.21
2019-06-08T20:50:20.218Z,69.02
2019-06-08T20:52:49.276Z,68.84
2019-06-08T20:55:17.503Z,69.04
2019-06-08T20:57:45.134Z,69.28
2019-06-08T21:00:15.008Z,69.07
2019-06-08T21:02:41.981Z,68.91
2019-06-08T21:05:09.056Z,68.84
2019-06-08T21:07:36.033Z,68.79
2019-06-08T21:10:03.546Z,69.38
2019-06-08T21:12:30.513Z,69.48
2019-06-08T21:14:57.654Z,69.66
2019-06-08T21:17:24.665Z,69.81
2019-06-08T21:19:53.032Z,69.60
2019-06-08T21:22:20.257Z,69.67
2019-06-08T21:24:53.649Z,69.46
2019-06-08T21:27:20.378Z,69.54
2019-06-08T21:29:56.179Z,69.72
2019-06-08T21:32:17.701Z,69.66
2019-06-08T21:34:47.617Z,69.70
2019-06-08T21:37:13.713Z,69.69
2019-06-08T21:39:40.721Z,69.88
2019-06-08T21:42:07.984Z,69.81
2019-06-08T21:44:37.095Z,69.63
2019-06-08T21:47:04.087Z,69.79
2019-06-08T21:49:31.056Z,70.04
2019-06-08T21:52:01.322Z,70.13
2019-06-08T21:54:37.463Z,70.24
2019-06-08T21:57:10.670Z,70.42
2019-06-08T21:59:40.656Z,70.31
2019-06-08T22:02:08.288Z,70.18
2019-06-08T22:04:37.203Z,70.33
2019-06-08T22:07:04.324Z,70.22
2019-06-08T22:09:31.370Z,70.15
2019-06-08T22:12:00.554Z,70.22
2019-06-08T22:14:27.426Z,70.27
2019-06-08T22:16:55.558Z,70.04
2019-06-08T22:19:23.425Z,70.14
2019-06-08T22:21:52.030Z,70.09
2019-06-08T22:24:19.269Z,70.26
2019-06-08T22:26:46.237Z,70.18
2019-06-08T22:29:15.302Z,70.35
2019-06-08T22:31:42.286Z,70.52
2019-06-08T22:34:09.243Z,70.59
2019-06-08T22:36:37.234Z,70.68
2019-06-08T22:39:07.875Z,70.76
2019-06-08T22:41:37.132Z,70.75
2019-06-08T22:44:03.554Z,70.93
2019-06-08T22:46:30.512Z,70.84
2019-06-08T22:49:00.568Z,71.01
2019-06-08T22:51:27.696Z,71.20
2019-06-08T22:54:02.726Z,71.31
2019-06-08T22:56:29.867Z,71.41
2019-06-08T22:59:00.583Z,71.32
2019-06-08T23:01:27.851Z,71.28
2019-06-08T23:03:56.159Z,71.44
2019-06-08T23:06:23.532Z,71.47
2019-06-08T23:08:50.505Z,71.36
2019-06-08T23:11:18.106Z,71.31
2019-06-08T23:13:47.188Z,71.37
2019-06-08T23:16:14.121Z,71.23
2019-06-08T23:18:41.132Z,71.48
2019-06-08T23:21:08.937Z,71.95
2019-06-08T23:23:38.113Z,72.41
2019-06-08T23:26:07.242Z,72.36
2019-06-08T23:28:37.833Z,72.10
2019-06-08T23:31:16.632Z,72.09
2019-06-08T23:33:33.840Z,72.11
2019-06-08T23:36:39.538Z,72.10
2019-06-08T23:38:37.401Z,72.59
2019-06-08T23:41:05.584Z,72.49
2019-06-08T23:43:32.745Z,72.72
2019-06-08T23:46:02.466Z,72.72
2019-06-08T23:48:30.656Z,72.89
2019-06-08T23:50:57.936Z,72.97
2019-06-08T23:53:27.499Z,72.88
2019-06-08T23:55:58.274Z,73.10
2019-06-08T23:58:25.112Z,73.25
